KAL2934 RKSI-RKPK
Flight info
| Callsign | KAL2934 |
|---|---|
| Flight time | 0h 47m |
| Altitude | 31000 |
| Route | OSPOT2Y OSPOT Y782 TGU Z83 MASTA KEVOX3 |
| Aircraft | B738/H-SDE2E3FGHIRWXY/LB1 |
Departure
| Time | 2026-05-04 06:28 |
|---|---|
| Airport | Incheon International Airport (RKSI) |
Arrival
| Time | 2026-05-04 07:15 |
|---|---|
| Airport | Gimhae International Airport (RKPK) |
| Time | Latitude | Longitude | Altitude | Speed | Heading |
|---|---|---|---|---|---|
| 2026-05-04 06:22 | 37.44597 | 126.44576 | 30 ft | 0 kts | 231° |
| 2026-05-04 06:25 | 37.44411 | 126.44271 | 29 ft | 1 kts | 235° |
| 2026-05-04 06:25 | 37.44408 | 126.44267 | 29 ft | 0 kts | 235° |
| 2026-05-04 06:26 | 37.44408 | 126.44266 | 29 ft | 0 kts | 235° |
| 2026-05-04 06:26 | 37.44404 | 126.44258 | 29 ft | 2 kts | 234° |
| 2026-05-04 06:26 | 37.44393 | 126.44239 | 29 ft | 3 kts | 234° |
| 2026-05-04 06:26 | 37.44377 | 126.44209 | 30 ft | 5 kts | 243° |
| 2026-05-04 06:27 | 37.44533 | 126.43999 | 31 ft | 35 kts | 324° |
| 2026-05-04 06:28 | 37.44918 | 126.43655 | 30 ft | 104 kts | 325° |
| 2026-05-04 06:28 | 37.45676 | 126.42968 | 98 ft | 157 kts | 321° |
| 2026-05-04 06:28 | 37.46593 | 126.42145 | 713 ft | 168 kts | 320° |
| 2026-05-04 06:28 | 37.47547 | 126.41366 | 1829 ft | 147 kts | 317° |
| 2026-05-04 06:29 | 37.48203 | 126.40362 | 2585 ft | 160 kts | 303° |
| 2026-05-04 06:29 | 37.48952 | 126.39113 | 2875 ft | 193 kts | 308° |
| 2026-05-04 06:29 | 37.49840 | 126.37696 | 3183 ft | 216 kts | 303° |
| 2026-05-04 06:29 | 37.50387 | 126.35917 | 3822 ft | 226 kts | 282° |
| 2026-05-04 06:30 | 37.50514 | 126.33896 | 4589 ft | 234 kts | 275° |
| 2026-05-04 06:30 | 37.50545 | 126.31823 | 5339 ft | 242 kts | 275° |
| 2026-05-04 06:30 | 37.50575 | 126.29663 | 6109 ft | 250 kts | 275° |
| 2026-05-04 06:30 | 37.50616 | 126.27447 | 6841 ft | 256 kts | 276° |
| 2026-05-04 06:31 | 37.50664 | 126.25192 | 7573 ft | 263 kts | 276° |
| 2026-05-04 06:31 | 37.50718 | 126.22858 | 8311 ft | 269 kts | 276° |
| 2026-05-04 06:31 | 37.50591 | 126.20482 | 9042 ft | 280 kts | 258° |
| 2026-05-04 06:31 | 37.49639 | 126.18294 | 9812 ft | 293 kts | 231° |
| 2026-05-04 06:32 | 37.47963 | 126.16826 | 10528 ft | 303 kts | 206° |
| 2026-05-04 06:33 | 37.35027 | 126.21915 | 15610 ft | 338 kts | 129° |
| 2026-05-04 06:34 | 37.33474 | 126.24178 | 16322 ft | 344 kts | 130° |
| 2026-05-04 06:34 | 37.31883 | 126.26469 | 17041 ft | 349 kts | 130° |
| 2026-05-04 06:34 | 37.30290 | 126.28749 | 17766 ft | 354 kts | 130° |
| 2026-05-04 06:34 | 37.28653 | 126.31086 | 18494 ft | 357 kts | 131° |
| 2026-05-04 06:35 | 37.26995 | 126.33451 | 19159 ft | 361 kts | 131° |
| 2026-05-04 06:36 | 37.16580 | 126.51416 | 24059 ft | 368 kts | 115° |
| 2026-05-04 06:37 | 37.15498 | 126.54322 | 24700 ft | 366 kts | 116° |
| 2026-05-04 06:37 | 37.14403 | 126.57196 | 25347 ft | 363 kts | 116° |
| 2026-05-04 06:37 | 37.13289 | 126.60072 | 25667 ft | 375 kts | 117° |
| 2026-05-04 06:37 | 37.12115 | 126.63082 | 25769 ft | 392 kts | 117° |
| 2026-05-04 06:38 | 37.10892 | 126.66213 | 25888 ft | 408 kts | 117° |
| 2026-05-04 06:38 | 37.09630 | 126.69439 | 25996 ft | 424 kts | 117° |
| 2026-05-04 06:40 | 36.99999 | 126.94115 | 29249 ft | 451 kts | 118° |
| 2026-05-04 06:40 | 36.98583 | 126.97677 | 29364 ft | 463 kts | 118° |
| 2026-05-04 06:40 | 36.97133 | 127.01319 | 29479 ft | 474 kts | 118° |
| 2026-05-04 06:40 | 36.95652 | 127.05049 | 29692 ft | 482 kts | 118° |
| 2026-05-04 06:41 | 36.94154 | 127.08831 | 29922 ft | 487 kts | 118° |
| 2026-05-04 06:41 | 36.92639 | 127.12664 | 30123 ft | 493 kts | 118° |
| 2026-05-04 06:41 | 36.91105 | 127.16543 | 30310 ft | 500 kts | 119° |
| 2026-05-04 06:41 | 36.89574 | 127.20409 | 30501 ft | 505 kts | 119° |
| 2026-05-04 06:42 | 36.88010 | 127.24356 | 30851 ft | 507 kts | 119° |
| 2026-05-04 06:42 | 36.86436 | 127.28321 | 30974 ft | 513 kts | 120° |
| 2026-05-04 06:44 | 36.67743 | 127.54600 | 30966 ft | 508 kts | 142° |
| 2026-05-04 06:44 | 36.62733 | 127.60736 | 30954 ft | 507 kts | 142° |
| 2026-05-04 06:45 | 36.57698 | 127.66876 | 30957 ft | 506 kts | 142° |
| 2026-05-04 06:45 | 36.52672 | 127.72997 | 30968 ft | 505 kts | 142° |
| 2026-05-04 06:46 | 36.47674 | 127.79073 | 30952 ft | 504 kts | 143° |
| 2026-05-04 06:46 | 36.42655 | 127.85163 | 30955 ft | 504 kts | 143° |
| 2026-05-04 06:48 | 36.22613 | 128.09390 | 30955 ft | 503 kts | 144° |
| 2026-05-04 06:50 | 36.03419 | 128.32369 | 25720 ft | 479 kts | 141° |
| 2026-05-04 06:51 | 36.01060 | 128.35190 | 24748 ft | 477 kts | 141° |
| 2026-05-04 06:51 | 35.98676 | 128.38040 | 23805 ft | 474 kts | 140° |
| 2026-05-04 06:51 | 35.96298 | 128.40878 | 22734 ft | 472 kts | 139° |
| 2026-05-04 06:51 | 35.93961 | 128.43663 | 21673 ft | 470 kts | 139° |
| 2026-05-04 06:52 | 35.91591 | 128.46485 | 20635 ft | 468 kts | 139° |
| 2026-05-04 06:52 | 35.89306 | 128.49203 | 20231 ft | 458 kts | 139° |
| 2026-05-04 06:52 | 35.86990 | 128.51953 | 20130 ft | 464 kts | 138° |
| 2026-05-04 06:52 | 35.84642 | 128.54730 | 20017 ft | 470 kts | 140° |
| 2026-05-04 06:53 | 35.82008 | 128.57080 | 19969 ft | 465 kts | 157° |
| 2026-05-04 06:53 | 35.78996 | 128.58433 | 19961 ft | 457 kts | 172° |
| 2026-05-04 06:53 | 35.75928 | 128.58803 | 19970 ft | 444 kts | 188° |
| 2026-05-04 06:53 | 35.72826 | 128.58513 | 19946 ft | 439 kts | 191° |
| 2026-05-04 06:54 | 35.69881 | 128.58187 | 19551 ft | 420 kts | 191° |
| 2026-05-04 06:54 | 35.66982 | 128.57871 | 18757 ft | 413 kts | 191° |
| 2026-05-04 06:54 | 35.64127 | 128.57576 | 17747 ft | 411 kts | 190° |
| 2026-05-04 06:54 | 35.61275 | 128.57300 | 16685 ft | 410 kts | 189° |
| 2026-05-04 06:55 | 35.58484 | 128.57044 | 15895 ft | 402 kts | 189° |
| 2026-05-04 06:55 | 35.55677 | 128.56793 | 15098 ft | 396 kts | 189° |
| 2026-05-04 06:55 | 35.52988 | 128.56553 | 14318 ft | 390 kts | 188° |
| 2026-05-04 06:55 | 35.50286 | 128.56310 | 13517 ft | 386 kts | 188° |
| 2026-05-04 06:56 | 35.47611 | 128.56155 | 12678 ft | 384 kts | 180° |
| 2026-05-04 06:57 | 35.31469 | 128.60092 | 7529 ft | 354 kts | 171° |
| 2026-05-04 06:58 | 35.29064 | 128.60676 | 6740 ft | 350 kts | 171° |
| 2026-05-04 06:58 | 35.26693 | 128.61246 | 6095 ft | 341 kts | 172° |
| 2026-05-04 06:58 | 35.26438 | 128.61306 | 6072 ft | 339 kts | 172° |
| 2026-05-04 06:59 | 35.26367 | 128.61323 | 6063 ft | 338 kts | 172° |
| 2026-05-04 06:59 | 35.24711 | 128.61723 | 5978 ft | 324 kts | 172° |
| 2026-05-04 07:01 | 35.11290 | 128.65014 | 5693 ft | 284 kts | 164° |
| 2026-05-04 07:01 | 35.09579 | 128.66187 | 5722 ft | 282 kts | 146° |
| 2026-05-04 07:02 | 35.07970 | 128.67557 | 5713 ft | 281 kts | 147° |
| 2026-05-04 07:02 | 35.06369 | 128.68900 | 5695 ft | 275 kts | 147° |
| 2026-05-04 07:02 | 35.04817 | 128.70196 | 5689 ft | 265 kts | 147° |
| 2026-05-04 07:02 | 35.03320 | 128.71499 | 5703 ft | 268 kts | 146° |
| 2026-05-04 07:03 | 35.01774 | 128.72855 | 5707 ft | 282 kts | 146° |
| 2026-05-04 07:03 | 35.00176 | 128.74263 | 5702 ft | 283 kts | 146° |
| 2026-05-04 07:03 | 34.98587 | 128.75667 | 5702 ft | 281 kts | 146° |
| 2026-05-04 07:03 | 34.97004 | 128.77063 | 5697 ft | 280 kts | 146° |
| 2026-05-04 07:04 | 34.95433 | 128.78455 | 5709 ft | 278 kts | 146° |
| 2026-05-04 07:04 | 34.93868 | 128.79842 | 5700 ft | 278 kts | 146° |
| 2026-05-04 07:04 | 34.92305 | 128.81229 | 5708 ft | 278 kts | 146° |
| 2026-05-04 07:04 | 34.90737 | 128.82625 | 5715 ft | 279 kts | 143° |
| 2026-05-04 07:05 | 34.89368 | 128.84279 | 5730 ft | 276 kts | 127° |
| 2026-05-04 07:05 | 34.88415 | 128.86322 | 5718 ft | 280 kts | 110° |
| 2026-05-04 07:05 | 34.87939 | 128.88623 | 5719 ft | 281 kts | 94° |
| 2026-05-04 07:05 | 34.87975 | 128.90950 | 5704 ft | 276 kts | 77° |
| 2026-05-04 07:06 | 34.89434 | 128.95159 | 5258 ft | 264 kts | 49° |
| 2026-05-04 07:06 | 34.90801 | 128.96521 | 5062 ft | 250 kts | 15° |
| 2026-05-04 07:06 | 34.92490 | 128.96848 | 4802 ft | 246 kts | 358° |
| 2026-05-04 07:07 | 34.94179 | 128.96879 | 4458 ft | 238 kts | 354° |
| 2026-05-04 07:08 | 35.03882 | 128.95621 | 2642 ft | 173 kts | 340° |
| 2026-05-04 07:09 | 35.04978 | 128.95063 | 2501 ft | 169 kts | 327° |
| 2026-05-04 07:09 | 35.05953 | 128.94377 | 2533 ft | 159 kts | 327° |
| 2026-05-04 07:09 | 35.06890 | 128.93692 | 2384 ft | 156 kts | 323° |
| 2026-05-04 07:09 | 35.07667 | 128.92765 | 2165 ft | 158 kts | 306° |
| 2026-05-04 07:10 | 35.08333 | 128.91730 | 2165 ft | 154 kts | 307° |
| 2026-05-04 07:10 | 35.08997 | 128.90712 | 2264 ft | 151 kts | 307° |
| 2026-05-04 07:12 | 35.15801 | 128.89787 | 1793 ft | 140 kts | 353° |
| 2026-05-04 07:12 | 35.16762 | 128.89742 | 1792 ft | 136 kts | 349° |
| 2026-05-04 07:12 | 35.17705 | 128.89683 | 1739 ft | 135 kts | 349° |
| 2026-05-04 07:12 | 35.18648 | 128.89622 | 1541 ft | 134 kts | 349° |
| 2026-05-04 07:13 | 35.19571 | 128.89561 | 1333 ft | 132 kts | 348° |
| 2026-05-04 07:13 | 35.20181 | 128.89529 | 1173 ft | 132 kts | 355° |
| 2026-05-04 07:13 | 35.21361 | 128.89905 | 923 ft | 137 kts | 24° |
| 2026-05-04 07:14 | 35.20824 | 128.93416 | 446 ft | 147 kts | 177° |
| 2026-05-04 07:14 | 35.19817 | 128.93463 | 242 ft | 144 kts | 175° |
| 2026-05-04 07:15 | 35.18544 | 128.93633 | 40 ft | 141 kts | 179° |
| 2026-05-04 07:15 | 35.17563 | 128.93744 | 26 ft | 143 kts | 173° |
| 2026-05-04 07:15 | 35.16928 | 128.93822 | 22 ft | 122 kts | 155° |
| 2026-05-04 07:15 | 35.16394 | 128.93902 | 24 ft | 28 kts | 173° |
| 2026-05-04 07:16 | 35.16286 | 128.93915 | 26 ft | 0 kts | 174° |